createdAt,value
2023-06-19T00:01:38.618Z,20.32
2023-06-19T00:04:05.503Z,20.30
2023-06-19T00:06:31.916Z,20.18
2023-06-19T00:08:58.784Z,20.16
2023-06-19T00:11:25.440Z,20.11
2023-06-19T00:13:51.826Z,20.07
2023-06-19T00:16:19.257Z,20.03
2023-06-19T00:18:46.438Z,20.01
2023-06-19T00:21:13.138Z,19.99
2023-06-19T00:23:39.608Z,20.01
2023-06-19T00:26:06.116Z,20.02
2023-06-19T00:28:32.682Z,20.05
2023-06-19T00:30:59.128Z,20.04
2023-06-19T00:33:25.777Z,20.06
2023-06-19T00:35:52.778Z,20.03
2023-06-19T00:38:19.578Z,20.07
2023-06-19T00:40:45.986Z,20.11
2023-06-19T00:43:12.701Z,19.99
2023-06-19T00:45:39.969Z,20.06
2023-06-19T00:48:06.950Z,19.96
2023-06-19T00:50:33.939Z,19.87
2023-06-19T00:53:04.388Z,19.83
2023-06-19T00:55:33.581Z,19.73
2023-06-19T00:58:01.596Z,19.72
2023-06-19T01:00:28.163Z,19.70
2023-06-19T01:02:54.721Z,19.70
2023-06-19T01:05:21.580Z,19.66
2023-06-19T01:07:55.606Z,19.71
2023-06-19T01:10:45.895Z,19.70
2023-06-19T01:13:24.930Z,19.68
2023-06-19T01:15:51.838Z,19.66
2023-06-19T01:18:18.691Z,19.67
2023-06-19T01:20:45.407Z,19.67
2023-06-19T01:23:13.050Z,19.73
2023-06-19T01:25:40.322Z,19.78
2023-06-19T01:28:12.171Z,19.81
2023-06-19T01:30:42.829Z,19.90
2023-06-19T01:33:20.199Z,19.97
2023-06-19T01:35:48.569Z,19.98
2023-06-19T01:38:17.000Z,19.97
2023-06-19T01:40:43.990Z,19.97
2023-06-19T01:43:12.002Z,20.02
2023-06-19T01:45:38.519Z,19.99
2023-06-19T01:48:05.414Z,19.93
2023-06-19T01:50:31.930Z,19.91
2023-06-19T01:52:58.360Z,19.88
2023-06-19T01:55:24.959Z,19.85
2023-06-19T01:57:51.597Z,19.83
2023-06-19T02:00:18.671Z,19.77
2023-06-19T02:02:45.783Z,19.71
2023-06-19T02:05:12.587Z,19.63
2023-06-19T02:07:39.538Z,19.61
2023-06-19T02:10:07.228Z,19.52
2023-06-19T02:12:33.641Z,19.39
2023-06-19T02:15:00.525Z,19.32
2023-06-19T02:17:27.396Z,19.32
2023-06-19T02:19:54.115Z,19.37
2023-06-19T02:22:20.548Z,19.34
2023-06-19T02:24:47.060Z,19.34
2023-06-19T02:27:13.581Z,19.42
2023-06-19T02:29:40.052Z,19.56
2023-06-19T02:32:06.751Z,19.50
2023-06-19T02:34:33.827Z,19.47
2023-06-19T02:37:00.403Z,19.57
2023-06-19T02:39:27.254Z,19.56
2023-06-19T02:41:53.728Z,19.66
2023-06-19T02:44:20.329Z,19.64
2023-06-19T02:46:46.992Z,19.67
2023-06-19T02:49:13.381Z,19.71
2023-06-19T02:51:42.206Z,19.86
2023-06-19T02:54:08.940Z,19.96
2023-06-19T02:56:35.769Z,20.09
2023-06-19T02:59:02.165Z,20.10
2023-06-19T03:01:29.138Z,20.19
2023-06-19T03:03:55.712Z,20.23
2023-06-19T03:06:22.267Z,20.10
2023-06-19T03:08:48.883Z,20.21
2023-06-19T03:11:15.328Z,20.19
2023-06-19T03:13:51.917Z,20.18
2023-06-19T03:16:19.088Z,20.26
2023-06-19T03:18:46.031Z,20.18
2023-06-19T03:21:16.679Z,20.24
2023-06-19T03:23:43.107Z,20.22
2023-06-19T03:26:11.132Z,20.27
2023-06-19T03:28:38.434Z,20.16
2023-06-19T03:31:04.888Z,20.12
2023-06-19T03:33:31.347Z,20.12
2023-06-19T03:35:58.036Z,20.12
2023-06-19T03:38:24.462Z,20.17
2023-06-19T03:40:50.835Z,20.13
2023-06-19T03:43:17.264Z,20.16
2023-06-19T03:45:43.649Z,20.09
2023-06-19T03:48:10.134Z,19.99
2023-06-19T03:50:36.810Z,19.95
2023-06-19T03:53:04.386Z,19.89
2023-06-19T03:55:30.803Z,19.83
2023-06-19T03:57:57.333Z,19.77
2023-06-19T04:00:24.306Z,19.69
2023-06-19T04:02:51.387Z,19.60
2023-06-19T04:05:18.767Z,19.55
2023-06-19T04:07:45.198Z,19.45
2023-06-19T04:10:12.923Z,19.42
2023-06-19T04:12:41.828Z,19.42
2023-06-19T04:15:09.237Z,19.34
2023-06-19T04:17:37.605Z,19.30
2023-06-19T04:20:11.996Z,19.32
2023-06-19T04:22:40.094Z,19.40
2023-06-19T04:25:11.684Z,19.38
2023-06-19T04:27:38.634Z,19.33
2023-06-19T04:30:07.730Z,19.41
2023-06-19T04:32:36.281Z,19.45
2023-06-19T04:35:03.252Z,19.44
2023-06-19T04:37:29.735Z,19.64
2023-06-19T04:39:57.124Z,19.64
2023-06-19T04:42:23.643Z,19.81
2023-06-19T04:44:50.749Z,19.93
2023-06-19T04:47:19.551Z,20.04
2023-06-19T04:49:46.656Z,20.18
2023-06-19T04:52:13.157Z,20.75
2023-06-19T04:54:40.009Z,21.95
2023-06-19T04:57:07.582Z,22.81
2023-06-19T04:59:34.636Z,23.03
2023-06-19T05:02:01.080Z,22.73
2023-06-19T05:04:28.044Z,22.33
2023-06-19T05:06:54.503Z,22.31
2023-06-19T05:09:20.983Z,22.58
2023-06-19T05:11:47.404Z,22.37
2023-06-19T05:14:15.727Z,22.20
2023-06-19T05:16:42.938Z,21.77
2023-06-19T05:19:09.585Z,21.33
2023-06-19T05:21:36.321Z,21.09
2023-06-19T05:24:03.042Z,20.88
2023-06-19T05:26:29.498Z,20.81
2023-06-19T05:28:55.888Z,20.70
2023-06-19T05:31:22.294Z,20.67
2023-06-19T05:33:48.666Z,20.64
2023-06-19T05:36:15.321Z,20.61
2023-06-19T05:38:42.182Z,20.55
2023-06-19T05:41:09.651Z,20.55
2023-06-19T05:43:36.274Z,20.47
2023-06-19T05:46:04.438Z,20.51
2023-06-19T05:48:30.891Z,20.52
2023-06-19T05:50:57.685Z,20.56
2023-06-19T05:53:24.201Z,20.66
2023-06-19T05:55:50.864Z,20.73
2023-06-19T05:58:20.998Z,20.62
2023-06-19T06:00:48.313Z,20.63
2023-06-19T06:03:14.894Z,20.72
2023-06-19T06:05:43.104Z,20.70
2023-06-19T06:08:09.645Z,20.90
2023-06-19T06:10:36.643Z,20.91
2023-06-19T06:13:03.066Z,21.01
2023-06-19T06:15:30.209Z,21.26
2023-06-19T06:17:56.684Z,21.39
2023-06-19T06:20:23.748Z,21.54
2023-06-19T06:22:50.644Z,21.63
2023-06-19T06:25:17.120Z,21.86
2023-06-19T06:27:43.609Z,22.13
2023-06-19T06:30:12.429Z,22.56
2023-06-19T06:32:39.301Z,22.94
2023-06-19T06:35:06.304Z,23.28
2023-06-19T06:37:32.695Z,23.43
2023-06-19T06:39:59.365Z,23.69
2023-06-19T06:42:25.797Z,23.84
2023-06-19T06:44:52.298Z,23.85
2023-06-19T06:47:18.675Z,24.01
2023-06-19T06:49:45.093Z,23.99
2023-06-19T06:52:11.837Z,23.79
2023-06-19T06:54:38.256Z,23.80
2023-06-19T06:57:06.664Z,23.44
2023-06-19T06:59:33.094Z,23.12
2023-06-19T07:01:59.506Z,22.88
2023-06-19T07:04:26.352Z,22.72
2023-06-19T07:06:53.064Z,22.55
2023-06-19T07:09:19.541Z,22.41
2023-06-19T07:11:46.021Z,22.31
2023-06-19T07:14:12.419Z,22.33
2023-06-19T07:16:39.178Z,22.20
2023-06-19T07:19:05.596Z,22.40
2023-06-19T07:21:32.223Z,22.75
2023-06-19T07:23:59.473Z,22.87
2023-06-19T07:26:25.999Z,22.82
2023-06-19T07:28:52.419Z,22.81
2023-06-19T07:31:18.850Z,22.80
2023-06-19T07:33:45.315Z,22.95
2023-06-19T07:36:15.143Z,23.14
2023-06-19T07:38:42.680Z,23.30
2023-06-19T07:41:10.837Z,23.53
2023-06-19T07:43:38.233Z,23.50
2023-06-19T07:46:04.969Z,23.57
2023-06-19T07:48:31.450Z,23.82
2023-06-19T07:50:58.079Z,24.23
2023-06-19T07:53:24.548Z,24.41
2023-06-19T07:55:50.967Z,24.55
2023-06-19T07:58:17.665Z,24.58
2023-06-19T08:00:44.044Z,24.60
2023-06-19T08:03:10.518Z,24.17
2023-06-19T08:05:36.959Z,24.07
2023-06-19T08:08:03.527Z,23.92
2023-06-19T08:10:30.263Z,24.00
2023-06-19T08:12:57.014Z,24.06
2023-06-19T08:15:23.680Z,24.39
2023-06-19T08:17:50.296Z,24.62
2023-06-19T08:20:17.029Z,24.50
2023-06-19T08:22:43.443Z,24.30
2023-06-19T08:25:09.893Z,24.22
2023-06-19T08:27:36.326Z,24.26
2023-06-19T08:30:03.024Z,24.41
2023-06-19T08:32:29.639Z,24.31
2023-06-19T08:34:56.359Z,24.45
2023-06-19T08:37:22.917Z,24.56
2023-06-19T08:39:49.327Z,24.88
2023-06-19T08:42:16.169Z,24.83
2023-06-19T08:44:42.660Z,24.59
2023-06-19T08:47:10.880Z,24.22
2023-06-19T08:49:37.328Z,24.07
2023-06-19T08:52:04.640Z,24.17
2023-06-19T08:54:31.403Z,24.58
2023-06-19T08:57:02.066Z,24.54
2023-06-19T08:59:29.551Z,24.70
2023-06-19T09:01:56.338Z,25.22
2023-06-19T09:04:27.542Z,25.53
2023-06-19T09:06:55.037Z,25.66
2023-06-19T09:09:23.857Z,25.71
2023-06-19T09:12:07.329Z,25.86
2023-06-19T09:14:38.887Z,26.06
2023-06-19T09:17:09.074Z,25.91
2023-06-19T09:19:37.860Z,25.68
2023-06-19T09:22:07.433Z,25.63
2023-06-19T09:24:38.544Z,25.57
2023-06-19T09:27:14.853Z,25.72
2023-06-19T09:29:42.800Z,25.64
2023-06-19T09:32:19.809Z,25.70
2023-06-19T09:34:47.271Z,25.39
2023-06-19T09:37:14.510Z,25.44
2023-06-19T09:39:42.363Z,25.68
2023-06-19T09:42:10.181Z,25.67
2023-06-19T09:44:46.896Z,25.48
2023-06-19T09:47:23.620Z,25.86
2023-06-19T09:49:56.054Z,26.02
2023-06-19T09:52:24.344Z,26.36
2023-06-19T09:54:53.063Z,26.62
2023-06-19T09:57:20.365Z,26.85
2023-06-19T10:00:02.034Z,26.90
2023-06-19T10:02:29.152Z,26.83
2023-06-19T10:04:57.237Z,27.07
2023-06-19T10:07:28.962Z,27.26
2023-06-19T10:10:01.948Z,27.42
2023-06-19T10:12:37.112Z,27.73
2023-06-19T10:15:17.386Z,27.81
2023-06-19T10:17:54.790Z,27.73
2023-06-19T10:20:26.979Z,27.78
2023-06-19T10:23:02.857Z,27.83
2023-06-19T10:25:36.568Z,27.94
2023-06-19T10:28:06.917Z,27.99
2023-06-19T10:30:35.262Z,28.06
2023-06-19T10:33:05.123Z,27.98
2023-06-19T10:35:41.971Z,28.27
2023-06-19T10:38:09.525Z,28.16
2023-06-19T10:40:39.259Z,28.11
2023-06-19T10:43:05.875Z,27.75
2023-06-19T10:45:33.622Z,27.84
2023-06-19T10:48:05.249Z,27.80
2023-06-19T10:50:38.267Z,27.92
2023-06-19T10:53:08.646Z,28.05
2023-06-19T10:55:36.637Z,28.19
2023-06-19T10:58:03.293Z,28.24
2023-06-19T11:00:32.070Z,28.51
2023-06-19T11:02:59.742Z,28.91
2023-06-19T11:05:28.488Z,29.14
2023-06-19T11:07:57.376Z,29.09
2023-06-19T11:10:30.320Z,29.04
2023-06-19T11:12:58.648Z,29.08
2023-06-19T11:15:33.152Z,29.28
2023-06-19T11:18:00.677Z,29.02
2023-06-19T11:20:27.765Z,28.67
2023-06-19T11:23:02.036Z,28.38
2023-06-19T11:25:38.939Z,28.33
2023-06-19T11:28:15.990Z,28.57
2023-06-19T11:30:45.402Z,28.63
2023-06-19T11:33:24.250Z,28.58
2023-06-19T11:35:53.098Z,28.55
2023-06-19T11:38:20.904Z,28.87
2023-06-19T11:40:47.741Z,28.73
2023-06-19T11:43:25.319Z,29.09
2023-06-19T11:45:53.913Z,28.57
2023-06-19T11:48:28.024Z,28.42
2023-06-19T11:50:54.880Z,28.75
2023-06-19T11:53:22.332Z,29.26
2023-06-19T11:55:49.499Z,29.26
2023-06-19T11:58:16.421Z,29.16
2023-06-19T12:00:43.967Z,29.10
2023-06-19T12:03:11.012Z,29.38
2023-06-19T12:05:38.927Z,29.52
2023-06-19T12:08:06.502Z,29.41
2023-06-19T12:10:33.751Z,29.44
2023-06-19T12:13:00.306Z,29.53
2023-06-19T12:15:26.754Z,29.41
2023-06-19T12:17:53.507Z,29.44
2023-06-19T12:20:20.469Z,29.29
2023-06-19T12:22:47.007Z,29.25
2023-06-19T12:25:13.383Z,29.40
2023-06-19T12:27:40.243Z,29.38
2023-06-19T12:30:07.338Z,29.11
2023-06-19T12:32:33.839Z,29.08
2023-06-19T12:35:00.266Z,29.14
2023-06-19T12:37:26.732Z,29.04
2023-06-19T12:39:53.201Z,29.32
2023-06-19T12:42:20.240Z,29.37
2023-06-19T12:44:47.076Z,28.85
2023-06-19T12:47:16.098Z,28.61
2023-06-19T12:49:42.503Z,28.79
2023-06-19T12:52:09.023Z,28.35
2023-06-19T12:54:36.370Z,27.95
2023-06-19T12:57:03.097Z,28.24
2023-06-19T12:59:30.394Z,28.48
2023-06-19T13:01:56.862Z,28.96
2023-06-19T13:04:23.373Z,29.33
2023-06-19T13:06:49.812Z,29.46
2023-06-19T13:09:17.461Z,29.44
2023-06-19T13:11:43.928Z,29.02
2023-06-19T13:14:10.336Z,29.46
2023-06-19T13:19:06.254Z,29.91
2023-06-19T13:21:32.896Z,30.02
2023-06-19T13:23:59.298Z,30.13
2023-06-19T13:26:25.834Z,29.99
2023-06-19T13:28:53.249Z,29.94
2023-06-19T13:31:19.688Z,30.34
2023-06-19T13:33:46.077Z,30.54
2023-06-19T13:36:12.799Z,30.63
2023-06-19T13:38:39.260Z,30.88
2023-06-19T13:41:05.897Z,31.03
2023-06-19T13:43:32.845Z,30.72
2023-06-19T13:45:59.899Z,29.84
2023-06-19T13:48:26.555Z,29.62
2023-06-19T13:50:52.988Z,29.65
2023-06-19T13:53:20.633Z,29.66
2023-06-19T13:55:47.885Z,29.70
2023-06-19T13:58:14.773Z,30.00
2023-06-19T14:00:41.237Z,29.90
2023-06-19T14:03:08.479Z,30.57
2023-06-19T14:05:36.156Z,31.09
2023-06-19T14:08:04.935Z,30.97
2023-06-19T14:10:31.516Z,31.19
2023-06-19T14:12:58.452Z,31.33
2023-06-19T14:15:25.151Z,31.73
2023-06-19T14:17:51.868Z,31.64
2023-06-19T14:20:18.503Z,31.82
2023-06-19T14:22:44.923Z,31.74
2023-06-19T14:25:11.496Z,31.34
2023-06-19T14:27:38.297Z,31.06
2023-06-19T14:30:05.509Z,30.60
2023-06-19T14:32:32.442Z,30.14
2023-06-19T14:34:58.840Z,29.77
2023-06-19T14:37:25.368Z,29.61
2023-06-19T14:39:51.763Z,29.55
2023-06-19T14:42:18.763Z,29.48
2023-06-19T14:44:45.488Z,29.63
2023-06-19T14:47:12.140Z,29.63
2023-06-19T14:49:39.295Z,29.87
2023-06-19T14:52:06.831Z,30.28
2023-06-19T14:54:33.311Z,30.81
2023-06-19T14:56:59.963Z,30.99
2023-06-19T14:59:26.449Z,31.19
2023-06-19T15:01:52.886Z,31.11
2023-06-19T15:04:19.451Z,30.41
2023-06-19T15:06:45.995Z,30.30
2023-06-19T15:09:12.443Z,30.43
2023-06-19T15:11:38.977Z,30.56
2023-06-19T15:14:05.421Z,30.78
2023-06-19T15:16:31.833Z,31.35
2023-06-19T15:18:58.434Z,31.32
2023-06-19T15:21:25.366Z,31.18
2023-06-19T15:23:58.192Z,31.16
2023-06-19T15:26:25.330Z,31.21
2023-06-19T15:28:54.465Z,31.24
2023-06-19T15:31:24.937Z,31.30
2023-06-19T15:33:51.531Z,31.09
2023-06-19T15:36:18.111Z,30.95
2023-06-19T15:38:45.135Z,31.08
2023-06-19T15:41:12.319Z,31.06
2023-06-19T15:43:39.861Z,31.38
2023-06-19T15:46:08.248Z,31.23
2023-06-19T15:48:35.272Z,31.26
2023-06-19T15:51:02.070Z,31.06
2023-06-19T15:53:28.625Z,30.62
2023-06-19T15:55:55.458Z,30.74
2023-06-19T15:58:21.974Z,30.08
2023-06-19T16:00:53.022Z,29.73
2023-06-19T16:03:21.142Z,30.14
2023-06-19T16:06:06.028Z,30.61
2023-06-19T16:08:33.294Z,30.71
2023-06-19T16:11:00.093Z,30.60
2023-06-19T16:13:26.513Z,30.56
2023-06-19T16:15:52.928Z,30.42
2023-06-19T16:18:20.039Z,30.43
2023-06-19T16:20:46.439Z,30.28
2023-06-19T16:23:13.189Z,30.18
2023-06-19T16:25:39.646Z,30.11
2023-06-19T16:28:06.568Z,29.87
2023-06-19T16:30:32.975Z,29.60
2023-06-19T16:32:59.842Z,29.50
2023-06-19T16:35:26.275Z,29.55
2023-06-19T16:37:57.143Z,29.85
2023-06-19T16:40:25.246Z,30.23
2023-06-19T16:42:53.292Z,30.30
2023-06-19T16:45:20.058Z,30.57
2023-06-19T16:47:46.537Z,30.74
2023-06-19T16:50:13.030Z,30.61
2023-06-19T16:52:39.880Z,30.32
2023-06-19T16:55:09.288Z,30.10
2023-06-19T16:57:35.864Z,30.19
2023-06-19T17:00:04.437Z,30.23
2023-06-19T17:02:31.489Z,30.25
2023-06-19T17:04:57.999Z,30.11
2023-06-19T17:07:24.860Z,30.04
2023-06-19T17:09:51.244Z,30.04
2023-06-19T17:12:18.094Z,29.89
2023-06-19T17:14:44.606Z,29.84
2023-06-19T17:17:11.164Z,29.87
2023-06-19T17:19:37.627Z,29.46
2023-06-19T17:22:04.326Z,29.05
2023-06-19T17:24:31.053Z,28.84
2023-06-19T17:26:58.528Z,28.60
2023-06-19T17:29:29.840Z,28.48
2023-06-19T17:31:57.834Z,28.42
2023-06-19T17:34:24.812Z,28.44
2023-06-19T17:36:51.757Z,28.47
2023-06-19T17:39:18.224Z,28.64
2023-06-19T17:41:44.670Z,28.78
2023-06-19T17:44:11.331Z,28.90
2023-06-19T17:46:39.742Z,28.80
2023-06-19T17:49:07.369Z,28.76
2023-06-19T17:51:34.814Z,28.50
2023-06-19T17:54:05.451Z,28.37
2023-06-19T17:56:32.405Z,28.28
2023-06-19T17:58:58.896Z,28.32
2023-06-19T18:01:25.636Z,28.24
2023-06-19T18:03:52.969Z,28.17
2023-06-19T18:06:19.957Z,28.00
2023-06-19T18:08:46.437Z,27.63
2023-06-19T18:11:12.824Z,27.39
2023-06-19T18:13:39.492Z,27.09
2023-06-19T18:16:12.407Z,27.04
2023-06-19T18:18:39.751Z,26.85
2023-06-19T18:21:06.664Z,26.77
2023-06-19T18:23:33.259Z,26.56
2023-06-19T18:25:59.908Z,26.48
2023-06-19T18:28:26.307Z,26.38
2023-06-19T18:30:52.788Z,26.36
2023-06-19T18:33:19.256Z,26.34
2023-06-19T18:35:45.767Z,26.27
2023-06-19T18:38:13.988Z,26.16
2023-06-19T18:40:42.201Z,26.14
2023-06-19T18:43:08.947Z,26.00
2023-06-19T18:45:35.372Z,25.98
2023-06-19T18:48:02.424Z,25.90
2023-06-19T18:50:28.943Z,25.80
2023-06-19T18:52:58.544Z,25.67
2023-06-19T18:55:25.256Z,25.52
2023-06-19T18:57:52.091Z,25.38
2023-06-19T19:00:19.399Z,25.24
2023-06-19T19:02:46.308Z,25.13
2023-06-19T19:05:12.897Z,25.02
2023-06-19T19:07:39.324Z,24.89
2023-06-19T19:10:06.727Z,24.80
2023-06-19T19:12:33.127Z,24.67
2023-06-19T19:14:59.520Z,24.55
2023-06-19T19:17:26.191Z,24.27
2023-06-19T19:19:52.758Z,24.08
2023-06-19T19:22:19.210Z,23.92
2023-06-19T19:24:45.781Z,23.86
2023-06-19T19:27:12.248Z,23.75
2023-06-19T19:29:38.823Z,23.65
2023-06-19T19:32:06.224Z,23.48
2023-06-19T19:34:32.703Z,23.38
2023-06-19T19:36:59.405Z,23.26
2023-06-19T19:39:25.927Z,23.09
2023-06-19T19:41:52.626Z,23.05
2023-06-19T19:44:19.033Z,22.88
2023-06-19T19:46:45.745Z,22.74
2023-06-19T19:49:12.607Z,22.69
2023-06-19T19:51:39.030Z,22.60
2023-06-19T19:54:06.730Z,22.57
2023-06-19T19:56:33.266Z,22.51
2023-06-19T19:59:00.082Z,22.47
2023-06-19T20:01:26.936Z,22.44
2023-06-19T20:03:53.529Z,22.36
2023-06-19T20:06:20.463Z,22.27
2023-06-19T20:08:47.662Z,22.18
2023-06-19T20:11:14.720Z,22.11
2023-06-19T20:13:41.287Z,22.07
2023-06-19T20:16:11.001Z,22.09
2023-06-19T20:18:37.803Z,22.08
2023-06-19T20:21:04.264Z,22.08
2023-06-19T20:23:30.867Z,22.05
2023-06-19T20:25:57.381Z,22.05
2023-06-19T20:28:24.050Z,22.07
2023-06-19T20:30:50.815Z,22.04
2023-06-19T20:33:17.523Z,21.97
2023-06-19T20:35:46.690Z,21.90
2023-06-19T20:38:13.530Z,21.85
2023-06-19T20:40:40.398Z,21.86
2023-06-19T20:43:08.227Z,21.87
2023-06-19T20:45:34.715Z,21.88
2023-06-19T20:48:01.386Z,21.82
2023-06-19T20:50:28.074Z,21.76
2023-06-19T20:52:54.803Z,21.70
2023-06-19T20:55:21.197Z,21.66
2023-06-19T20:57:47.693Z,21.55
2023-06-19T21:00:14.408Z,21.39
2023-06-19T21:02:41.463Z,21.32
2023-06-19T21:05:09.957Z,21.26
2023-06-19T21:07:36.457Z,21.26
2023-06-19T21:10:02.976Z,21.11
2023-06-19T21:12:29.480Z,21.00
2023-06-19T21:14:56.164Z,20.95
2023-06-19T21:17:22.833Z,20.92
2023-06-19T21:19:49.355Z,20.89
2023-06-19T21:22:15.817Z,20.68
2023-06-19T21:24:42.260Z,20.64
2023-06-19T21:27:08.687Z,20.69
2023-06-19T21:29:36.533Z,20.75
2023-06-19T21:32:03.024Z,20.77
2023-06-19T21:34:29.889Z,20.74
2023-06-19T21:36:56.280Z,20.74
2023-06-19T21:39:22.982Z,20.73
2023-06-19T21:41:49.868Z,20.72
2023-06-19T21:44:16.741Z,20.74
2023-06-19T21:46:43.233Z,20.64
2023-06-19T21:49:09.623Z,20.54
2023-06-19T21:51:36.491Z,20.55
2023-06-19T21:54:03.329Z,20.51
2023-06-19T21:56:29.804Z,20.46
2023-06-19T21:58:56.236Z,20.51
2023-06-19T22:01:22.780Z,20.50
2023-06-19T22:03:49.350Z,20.51
2023-06-19T22:06:16.830Z,20.53
2023-06-19T22:08:43.740Z,20.51
2023-06-19T22:11:10.271Z,20.51
2023-06-19T22:13:36.856Z,20.55
2023-06-19T22:16:03.608Z,20.55
2023-06-19T22:18:30.082Z,20.56
2023-06-19T22:20:56.487Z,20.54
2023-06-19T22:23:23.229Z,20.54
2023-06-19T22:25:50.260Z,20.52
2023-06-19T22:28:16.634Z,20.54
2023-06-19T22:30:43.494Z,20.54
2023-06-19T22:33:10.615Z,20.50
2023-06-19T22:35:37.392Z,20.42
2023-06-19T22:38:04.812Z,20.40
2023-06-19T22:40:31.331Z,20.39
2023-06-19T22:42:57.749Z,20.39
2023-06-19T22:45:24.381Z,20.37
2023-06-19T22:47:51.320Z,20.38
2023-06-19T22:50:18.363Z,20.40
2023-06-19T22:52:45.343Z,20.44
2023-06-19T22:55:11.827Z,20.47
2023-06-19T22:57:38.718Z,20.48
2023-06-19T23:00:13.043Z,20.45
2023-06-19T23:02:44.383Z,20.47
2023-06-19T23:05:12.451Z,20.46
2023-06-19T23:07:39.782Z,20.47
2023-06-19T23:10:08.735Z,20.48
2023-06-19T23:12:35.136Z,20.52
2023-06-19T23:15:01.620Z,20.50
2023-06-19T23:17:28.392Z,20.48
2023-06-19T23:19:58.942Z,20.47
2023-06-19T23:22:26.955Z,20.54
2023-06-19T23:24:54.379Z,20.48
2023-06-19T23:27:21.383Z,20.49
2023-06-19T23:29:47.847Z,20.49
2023-06-19T23:32:14.726Z,20.42
2023-06-19T23:34:41.123Z,20.37
2023-06-19T23:37:07.943Z,20.37
2023-06-19T23:39:34.382Z,20.38
2023-06-19T23:42:04.513Z,20.44
2023-06-19T23:44:31.104Z,20.49
2023-06-19T23:46:57.581Z,20.47
2023-06-19T23:49:24.501Z,20.47
2023-06-19T23:51:51.118Z,20.52
2023-06-19T23:54:17.735Z,20.57
2023-06-19T23:56:44.153Z,20.58
2023-06-19T23:59:10.656Z,20.65
